Time;durP1;ratioP1;P1;durP2;ratioP2;P2;SDS_P1;SDS_P2;PMS_P1;PMS_P2;Temp;Humidity;BMP_temperature;BMP_pressure;BME280_temperature;BME280_humidity;BME280_pressure;Samples;Min_cycle;Max_cycle;Signal;HPM_P1;HPM_P2
2021/10/20 00:02:05;;;;;;;2.08;0.80;;;18.60;49.50;;;;;;5065830;28;20303;-40
2021/10/20 00:04:35;;;;;;;1.23;0.80;;;18.60;49.50;;;;;;5039642;28;20305;-40
2021/10/20 00:07:08;;;;;;;0.73;0.65;;;18.60;49.50;;;;;;5068070;28;20290;-42
2021/10/20 00:09:38;;;;;;;1.25;0.70;;;18.70;49.50;;;;;;5055865;28;20234;-43
2021/10/20 00:12:09;;;;;;;3.70;0.90;;;18.70;49.40;;;;;;5049992;28;20234;-46
2021/10/20 00:14:40;;;;;;;2.45;0.80;;;18.70;49.40;;;;;;5048416;28;20231;-45
2021/10/20 00:17:10;;;;;;;2.55;1.05;;;18.70;49.40;;;;;;5045599;28;20235;-43
2021/10/20 00:19:41;;;;;;;1.05;0.75;;;18.70;49.40;;;;;;5046496;28;20230;-43
2021/10/20 00:22:13;;;;;;;1.40;0.88;;;18.70;49.40;;;;;;5062377;28;20796;-44
2021/10/20 00:24:43;;;;;;;2.15;0.90;;;18.70;49.40;;;;;;5063736;28;20249;-42
2021/10/20 00:27:14;;;;;;;1.70;0.90;;;18.70;49.30;;;;;;5065487;28;20199;-40
2021/10/20 00:29:44;;;;;;;1.30;0.80;;;18.70;49.30;;;;;;5053272;28;20500;-44
2021/10/20 00:32:15;;;;;;;1.73;0.90;;;18.80;49.30;;;;;;5044311;28;20283;-41
2021/10/20 00:34:45;;;;;;;1.42;0.70;;;18.80;49.30;;;;;;5061889;28;20238;-41
2021/10/20 00:37:18;;;;;;;1.48;0.88;;;18.80;49.30;;;;;;5053951;28;20234;-46
2021/10/20 00:39:48;;;;;;;2.30;0.90;;;18.80;49.20;;;;;;5048300;28;20234;-42
2021/10/20 00:42:21;;;;;;;2.25;0.90;;;18.90;49.20;;;;;;5052295;28;20223;-42
2021/10/20 00:44:52;;;;;;;2.20;1.08;;;18.90;49.20;;;;;;5053247;28;20692;-40
2021/10/20 00:47:24;;;;;;;1.15;0.70;;;18.90;49.30;;;;;;5064266;28;20460;-41
2021/10/20 00:49:55;;;;;;;1.30;0.70;;;18.90;49.30;;;;;;5039872;28;20223;-43
2021/10/20 00:52:28;;;;;;;1.48;0.98;;;18.90;49.20;;;;;;5050120;28;20227;-46
2021/10/20 00:55:00;;;;;;;2.25;0.80;;;18.90;49.10;;;;;;5063424;28;20199;-40
2021/10/20 00:57:32;;;;;;;1.83;0.88;;;18.90;49.10;;;;;;5048970;28;20204;-40
2021/10/20 01:00:07;;;;;;;3.13;0.95;;;19.00;49.20;;;;;;5057786;28;20254;-40
2021/10/20 01:02:39;;;;;;;1.35;0.80;;;19.00;49.10;;;;;;5054248;28;20234;-42
2021/10/20 01:05:10;;;;;;;0.80;0.65;;;19.00;49.10;;;;;;5055438;28;20274;-42
2021/10/20 01:07:43;;;;;;;1.30;0.80;;;19.00;49.10;;;;;;5059898;28;20227;-44
2021/10/20 01:10:16;;;;;;;1.70;0.82;;;19.00;49.00;;;;;;5049134;28;20243;-42
2021/10/20 01:12:47;;;;;;;0.73;0.65;;;19.00;48.90;;;;;;5048056;28;20295;-41
2021/10/20 01:15:19;;;;;;;2.08;0.98;;;19.00;48.90;;;;;;5065268;28;20740;-44
2021/10/20 01:17:50;;;;;;;1.13;0.70;;;19.10;48.90;;;;;;5049596;28;20235;-42
2021/10/20 01:20:21;;;;;;;1.73;1.00;;;19.10;48.90;;;;;;5048378;28;20254;-47
2021/10/20 01:22:54;;;;;;;1.10;0.77;;;19.10;48.90;;;;;;5048335;28;20287;-44
2021/10/20 01:25:25;;;;;;;1.23;0.75;;;19.10;48.90;;;;;;5058095;28;20203;-42
2021/10/20 01:27:58;;;;;;;1.10;0.80;;;19.20;48.90;;;;;;5056023;28;20219;-41
2021/10/20 01:30:29;;;;;;;1.60;0.70;;;19.20;48.80;;;;;;5051171;28;20697;-41
2021/10/20 01:33:00;;;;;;;3.22;0.82;;;19.20;48.90;;;;;;5056670;28;20509;-40
2021/10/20 01:35:30;;;;;;;1.33;0.68;;;19.20;49.20;;;;;;5059489;28;20712;-42
2021/10/20 01:38:04;;;;;;;1.77;0.70;;;19.20;49.30;;;;;;5049161;28;20227;-43
2021/10/20 01:40:34;;;;;;;1.30;0.88;;;19.30;49.40;;;;;;5064758;28;20315;-44
2021/10/20 01:43:05;;;;;;;1.05;0.70;;;19.30;49.30;;;;;;5062117;28;20907;-44
2021/10/20 01:45:36;;;;;;;2.15;0.88;;;19.30;49.30;;;;;;5060541;28;20276;-42
2021/10/20 01:48:07;;;;;;;1.80;1.00;;;19.30;49.40;;;;;;5053320;28;20195;-44
2021/10/20 01:50:38;;;;;;;0.73;0.70;;;19.40;50.00;;;;;;5055832;28;20257;-43
2021/10/20 01:53:10;;;;;;;3.13;1.20;;;19.40;49.20;;;;;;5063643;28;20295;-43
2021/10/20 01:55:41;;;;;;;1.90;0.85;;;19.40;49.20;;;;;;5052968;28;20279;-41
2021/10/20 01:58:11;;;;;;;1.55;0.90;;;19.40;49.10;;;;;;5067850;28;20219;-46
2021/10/20 02:00:42;;;;;;;2.40;1.10;;;19.40;49.00;;;;;;5051863;28;20314;-49
2021/10/20 02:03:12;;;;;;;1.30;0.85;;;19.50;49.00;;;;;;5052132;28;20623;-46
2021/10/20 02:05:43;;;;;;;1.92;1.13;;;19.50;48.90;;;;;;5054800;28;20235;-45
2021/10/20 02:08:15;;;;;;;1.33;0.90;;;19.50;48.80;;;;;;5052477;28;20227;-42
2021/10/20 02:10:45;;;;;;;2.03;0.82;;;19.50;48.70;;;;;;5060601;28;20309;-44
2021/10/20 02:13:16;;;;;;;2.15;0.90;;;19.50;48.70;;;;;;5065722;28;20285;-45
2021/10/20 02:15:46;;;;;;;1.80;0.90;;;19.50;48.60;;;;;;5063443;28;20226;-47
2021/10/20 02:18:17;;;;;;;1.88;0.90;;;19.60;48.60;;;;;;5052611;28;20223;-43
2021/10/20 02:20:47;;;;;;;2.15;0.70;;;19.60;48.50;;;;;;5051926;28;20287;-43
2021/10/20 02:23:20;;;;;;;2.13;0.88;;;19.60;48.50;;;;;;5051177;28;20297;-41
2021/10/20 02:25:51;;;;;;;1.38;0.60;;;19.60;48.40;;;;;;5050570;28;20226;-45
2021/10/20 02:28:21;;;;;;;3.50;0.80;;;19.60;48.30;;;;;;5055939;28;20229;-45
2021/10/20 02:30:52;;;;;;;1.30;0.60;;;19.60;48.30;;;;;;5055684;28;20303;-44
2021/10/20 02:33:23;;;;;;;2.80;0.82;;;19.60;48.30;;;;;;5051282;28;20282;-46
2021/10/20 02:35:53;;;;;;;1.65;0.80;;;19.60;48.30;;;;;;5062212;28;20706;-42
2021/10/20 02:38:26;;;;;;;2.67;1.00;;;19.70;48.40;;;;;;5050611;28;20227;-45
2021/10/20 02:40:56;;;;;;;3.13;0.90;;;19.70;48.30;;;;;;5050312;28;20305;-46
2021/10/20 02:43:27;;;;;;;1.90;0.60;;;19.70;48.40;;;;;;5067299;28;20236;-43
2021/10/20 02:45:58;;;;;;;2.88;0.90;;;19.70;48.40;;;;;;5067352;28;20230;-43
2021/10/20 02:48:28;;;;;;;1.38;0.70;;;19.70;48.40;;;;;;5051495;28;20278;-46
2021/10/20 02:50:58;;;;;;;1.25;0.77;;;19.70;48.30;;;;;;5051413;28;20307;-48
2021/10/20 02:53:31;;;;;;;1.58;0.85;;;19.70;48.20;;;;;;5052331;28;20235;-45
2021/10/20 02:56:01;;;;;;;1.48;0.80;;;19.70;48.10;;;;;;5058552;28;20281;-43
2021/10/20 02:58:32;;;;;;;1.52;0.80;;;19.70;48.10;;;;;;5059690;28;20291;-46
2021/10/20 03:01:02;;;;;;;1.38;0.65;;;19.70;48.00;;;;;;5051589;28;20364;-42
2021/10/20 03:03:33;;;;;;;1.35;0.77;;;19.70;48.00;;;;;;5050402;28;20230;-47
2021/10/20 03:06:03;;;;;;;1.00;0.80;;;19.70;48.00;;;;;;5066634;28;20673;-44
2021/10/20 03:08:36;;;;;;;2.05;1.20;;;19.70;48.10;;;;;;5068243;28;20199;-45
2021/10/20 03:11:07;;;;;;;1.88;1.00;;;19.80;48.00;;;;;;5066690;28;20305;-49
2021/10/20 03:13:37;;;;;;;2.00;0.80;;;19.80;47.90;;;;;;5051381;28;20279;-45
2021/10/20 03:16:08;;;;;;;1.13;0.70;;;19.80;47.90;;;;;;5050062;28;20286;-42
2021/10/20 03:18:39;;;;;;;1.58;0.77;;;19.80;47.90;;;;;;5051460;28;20286;-48
2021/10/20 03:21:09;;;;;;;3.17;1.00;;;19.80;47.80;;;;;;5054522;28;20254;-44
2021/10/20 03:23:41;;;;;;;2.08;0.98;;;19.80;47.80;;;;;;5065006;28;20234;-46
2021/10/20 03:26:12;;;;;;;1.90;1.08;;;19.80;47.90;;;;;;5063449;28;20228;-45
2021/10/20 03:28:42;;;;;;;1.17;0.70;;;19.80;47.90;;;;;;5042654;28;20234;-44
2021/10/20 03:31:13;;;;;;;2.17;0.80;;;19.80;47.90;;;;;;5050857;28;20251;-43
2021/10/20 03:33:43;;;;;;;1.98;0.82;;;19.80;47.80;;;;;;5051925;28;20203;-48
2021/10/20 03:36:14;;;;;;;1.23;0.90;;;19.80;47.80;;;;;;5061484;28;20644;-46
2021/10/20 03:38:47;;;;;;;2.13;1.10;;;19.80;47.80;;;;;;5052797;28;20691;-46
2021/10/20 03:41:17;;;;;;;2.58;0.93;;;19.80;47.80;;;;;;5051270;28;20223;-49
2021/10/20 03:43:48;;;;;;;2.17;0.88;;;19.80;47.80;;;;;;5055068;28;20230;-44
2021/10/20 03:46:18;;;;;;;2.45;1.00;;;19.80;47.70;;;;;;5060411;28;20233;-49
2021/10/20 03:48:49;;;;;;;1.98;0.82;;;19.80;47.70;;;;;;5048148;28;20223;-48
2021/10/20 03:51:19;;;;;;;1.85;0.93;;;19.80;47.90;;;;;;5047563;28;20269;-42
2021/10/20 03:53:51;;;;;;;1.65;0.82;;;19.80;47.80;;;;;;5066956;28;20256;-46
2021/10/20 03:56:22;;;;;;;2.08;0.90;;;19.80;47.70;;;;;;5065989;28;20198;-44
2021/10/20 03:58:52;;;;;;;1.95;1.10;;;19.80;47.70;;;;;;5051391;28;20282;-46
2021/10/20 04:01:23;;;;;;;1.30;0.70;;;19.80;47.70;;;;;;5047805;28;20790;-43
2021/10/20 04:03:53;;;;;;;1.98;0.88;;;19.80;47.70;;;;;;5054902;28;20230;-45
2021/10/20 04:06:24;;;;;;;1.92;0.90;;;19.80;47.80;;;;;;5060527;28;20266;-44
2021/10/20 04:08:56;;;;;;;2.67;0.90;;;19.80;47.70;;;;;;5050851;28;20234;-42
2021/10/20 04:11:26;;;;;;;1.25;0.98;;;19.80;47.70;;;;;;5064283;28;20908;-45
2021/10/20 04:13:57;;;;;;;1.80;0.82;;;19.80;47.70;;;;;;5032009;28;20239;-44
2021/10/20 04:16:27;;;;;;;1.70;0.90;;;19.80;47.60;;;;;;5049604;28;20238;-43
2021/10/20 04:18:58;;;;;;;2.45;1.77;;;19.80;47.70;;;;;;5051673;28;20231;-42
2021/10/20 04:21:28;;;;;;;3.15;1.73;;;19.80;47.60;;;;;;5050931;28;20258;-45
2021/10/20 04:24:01;;;;;;;4.03;1.58;;;19.80;47.60;;;;;;5049731;28;20227;-42
2021/10/20 04:26:31;;;;;;;1.67;1.50;;;19.80;47.60;;;;;;5049228;28;20278;-46
2021/10/20 04:29:02;;;;;;;1.92;1.35;;;19.70;47.60;;;;;;5049561;28;20748;-48
2021/10/20 04:31:32;;;;;;;2.80;1.75;;;19.70;47.60;;;;;;5052951;28;20268;-41
2021/10/20 04:34:02;;;;;;;2.92;2.20;;;19.70;47.70;;;;;;5047950;28;20300;-43
2021/10/20 04:36:33;;;;;;;4.05;2.15;;;19.70;47.60;;;;;;5065737;28;20230;-45
2021/10/20 04:39:06;;;;;;;3.25;2.28;;;19.70;47.60;;;;;;5053665;28;20743;-43
2021/10/20 04:41:36;;;;;;;3.53;2.30;;;19.70;47.60;;;;;;5063244;28;20314;-47
2021/10/20 04:44:07;;;;;;;3.03;2.50;;;19.70;47.60;;;;;;5052666;28;20287;-41
2021/10/20 04:46:37;;;;;;;2.53;1.98;;;19.70;47.60;;;;;;5049451;28;20343;-44
2021/10/20 04:49:08;;;;;;;2.85;2.00;;;19.70;47.70;;;;;;5055637;28;20637;-46
2021/10/20 04:51:38;;;;;;;2.85;2.10;;;19.70;47.70;;;;;;5059514;28;20259;-46
2021/10/20 04:54:11;;;;;;;2.80;1.95;;;19.70;47.70;;;;;;5045273;28;20241;-47
2021/10/20 04:56:41;;;;;;;2.28;1.90;;;19.60;47.60;;;;;;5061627;28;20278;-41
2021/10/20 04:59:12;;;;;;;4.20;2.50;;;19.60;47.70;;;;;;5048031;28;20627;-43
2021/10/20 05:01:42;;;;;;;3.53;2.00;;;19.60;47.50;;;;;;5049689;28;20273;-42
2021/10/20 05:04:13;;;;;;;2.65;2.00;;;19.60;47.40;;;;;;5057350;28;20280;-44
2021/10/20 05:06:43;;;;;;;3.63;2.00;;;19.60;47.40;;;;;;5050194;28;20242;-43
2021/10/20 05:09:15;;;;;;;2.13;1.85;;;19.60;47.40;;;;;;5053903;28;20300;-43
2021/10/20 05:11:46;;;;;;;3.42;1.95;;;19.60;47.50;;;;;;5060810;28;20706;-41
2021/10/20 05:14:16;;;;;;;2.72;2.05;;;19.60;48.10;;;;;;5060215;28;20278;-46
2021/10/20 05:16:49;;;;;;;3.35;1.98;;;19.60;47.50;;;;;;5050136;28;20238;-44
2021/10/20 05:19:19;;;;;;;3.75;2.08;;;19.60;47.60;;;;;;5048206;28;20235;-42
2021/10/20 05:21:50;;;;;;;3.00;1.70;;;19.60;47.50;;;;;;5064418;28;20270;-45
2021/10/20 05:24:22;;;;;;;3.75;2.03;;;19.50;47.50;;;;;;5048805;28;20254;-42
2021/10/20 05:26:54;;;;;;;2.25;1.80;;;19.50;47.60;;;;;;5063358;28;20230;-40
2021/10/20 05:29:31;;;;;;;3.55;1.77;;;19.50;48.20;;;;;;5050610;28;20199;-40
2021/10/20 05:32:02;;;;;;;3.30;1.90;;;19.50;47.60;;;;;;5053170;28;20249;-40
2021/10/20 05:34:33;;;;;;;2.65;1.95;;;19.50;47.60;;;;;;5053415;28;20233;-41
2021/10/20 05:37:03;;;;;;;3.03;1.90;;;19.50;47.70;;;;;;5057689;28;20223;-43
2021/10/20 05:39:35;;;;;;;2.97;1.83;;;19.50;47.70;;;;;;5048224;28;20246;-43
2021/10/20 05:42:06;;;;;;;3.65;2.13;;;19.50;47.80;;;;;;5062306;28;20598;-46
2021/10/20 05:44:37;;;;;;;3.05;1.90;;;19.50;47.70;;;;;;5037734;28;20278;-42
2021/10/20 05:47:07;;;;;;;2.95;2.13;;;19.40;47.50;;;;;;5066138;28;20635;-43
2021/10/20 05:49:38;;;;;;;4.72;2.25;;;19.40;47.60;;;;;;5048420;28;20196;-43
2021/10/20 05:52:09;;;;;;;3.83;2.25;;;19.40;47.50;;;;;;5058763;28;20238;-43
2021/10/20 05:54:41;;;;;;;2.72;2.10;;;19.40;47.50;;;;;;5050168;28;20235;-42
2021/10/20 05:57:12;;;;;;;3.42;1.83;;;19.40;47.50;;;;;;5048192;28;20278;-41
2021/10/20 05:59:42;;;;;;;4.78;2.30;;;19.40;47.50;;;;;;5050814;28;20230;-44
2021/10/20 06:02:14;;;;;;;3.38;2.08;;;19.40;47.60;;;;;;5062454;28;20715;-44
2021/10/20 06:04:44;;;;;;;3.25;2.00;;;19.40;47.60;;;;;;5055210;28;20210;-43
2021/10/20 06:07:15;;;;;;;2.30;1.77;;;19.40;47.70;;;;;;5048921;28;20242;-41
2021/10/20 06:09:47;;;;;;;3.55;1.90;;;19.40;47.80;;;;;;5065220;28;20261;-46
2021/10/20 06:12:18;;;;;;;3.63;2.00;;;19.40;47.80;;;;;;5049331;28;20290;-44
2021/10/20 06:14:48;;;;;;;2.10;1.90;;;19.40;47.90;;;;;;5058329;28;20234;-43
2021/10/20 06:17:19;;;;;;;3.60;2.20;;;19.30;47.80;;;;;;5060447;28;20234;-42
2021/10/20 06:19:50;;;;;;;2.83;1.90;;;19.30;47.80;;;;;;5055864;28;20199;-42
2021/10/20 06:22:21;;;;;;;3.17;1.98;;;19.30;47.80;;;;;;5047628;28;20223;-40
2021/10/20 06:24:53;;;;;;;3.75;1.83;;;19.30;47.80;;;;;;5049198;28;20231;-43
2021/10/20 06:27:24;;;;;;;2.90;1.73;;;19.30;47.90;;;;;;5061853;28;20271;-42
2021/10/20 06:29:54;;;;;;;3.65;1.73;;;19.30;47.90;;;;;;5049215;28;20227;-43
2021/10/20 06:32:25;;;;;;;2.25;1.90;;;19.30;47.90;;;;;;5056654;28;20286;-47
2021/10/20 06:34:55;;;;;;;3.55;1.92;;;19.30;47.90;;;;;;5044316;28;20296;-43
2021/10/20 06:37:27;;;;;;;3.42;1.90;;;19.30;47.90;;;;;;5061278;28;20230;-41
2021/10/20 06:40:00;;;;;;;3.92;1.73;;;19.30;48.00;;;;;;5065758;28;20195;-40
2021/10/20 06:42:31;;;;;;;3.35;2.00;;;19.20;48.00;;;;;;5058809;28;20231;-43
2021/10/20 06:45:03;;;;;;;2.03;1.70;;;19.20;48.00;;;;;;5052269;28;20706;-43
2021/10/20 06:47:33;;;;;;;2.58;1.70;;;19.20;48.00;;;;;;5044835;28;20202;-42
2021/10/20 06:50:04;;;;;;;4.43;2.25;;;19.20;48.00;;;;;;5063149;28;20247;-40
2021/10/20 06:52:35;;;;;;;2.03;1.42;;;19.20;48.00;;;;;;5051271;28;20203;-40
2021/10/20 06:55:08;;;;;;;3.33;2.30;;;19.20;48.00;;;;;;5051426;28;20629;-44
2021/10/20 06:57:38;;;;;;;1.60;1.50;;;19.20;48.00;;;;;;5065322;28;20234;-41
2021/10/20 07:00:10;;;;;;;2.53;1.58;;;19.20;48.10;;;;;;5065740;28;20246;-42
2021/10/20 07:02:41;;;;;;;3.00;1.70;;;19.20;48.10;;;;;;5064167;28;20215;-43
2021/10/20 07:05:12;;;;;;;2.58;1.77;;;19.20;48.10;;;;;;5063938;28;20230;-44
2021/10/20 07:07:42;;;;;;;2.83;1.70;;;19.20;48.10;;;;;;5051553;28;20740;-46
2021/10/20 07:10:15;;;;;;;2.47;1.65;;;19.20;48.10;;;;;;5052032;28;20242;-42
2021/10/20 07:12:45;;;;;;;2.67;1.52;;;19.20;48.10;;;;;;5049928;28;20295;-43
2021/10/20 07:15:16;;;;;;;2.80;1.70;;;19.20;48.10;;;;;;5067623;28;20238;-40
2021/10/20 07:17:47;;;;;;;2.40;1.60;;;19.10;48.00;;;;;;5044551;28;20242;-43
2021/10/20 07:20:18;;;;;;;2.53;1.63;;;19.20;48.10;;;;;;5055565;28;20259;-47
2021/10/20 07:22:48;;;;;;;2.20;1.77;;;19.10;48.10;;;;;;5062864;28;20314;-40
2021/10/20 07:25:21;;;;;;;3.80;1.90;;;19.10;48.20;;;;;;5054830;28;20653;-41
2021/10/20 07:27:52;;;;;;;2.97;1.77;;;19.10;48.20;;;;;;5044588;28;20238;-41
2021/10/20 07:30:22;;;;;;;2.72;1.85;;;19.10;48.20;;;;;;5052916;28;20656;-40
2021/10/20 07:32:53;;;;;;;3.38;2.15;;;19.10;48.20;;;;;;5058650;28;20219;-42
2021/10/20 07:35:23;;;;;;;2.88;1.83;;;19.10;48.20;;;;;;5055051;28;20278;-40
2021/10/20 07:37:54;;;;;;;2.28;1.55;;;19.10;48.30;;;;;;5049281;28;20226;-42
2021/10/20 07:40:27;;;;;;;2.33;1.75;;;19.10;48.30;;;;;;5051622;28;20609;-40
2021/10/20 07:42:57;;;;;;;3.55;1.77;;;19.00;48.20;;;;;;5062680;28;20745;-43
2021/10/20 07:45:28;;;;;;;2.30;1.50;;;19.00;48.20;;;;;;5051706;28;20384;-45
2021/10/20 07:47:58;;;;;;;3.75;1.88;;;19.10;48.30;;;;;;5058909;28;20234;-40
2021/10/20 07:50:29;;;;;;;1.70;1.60;;;19.00;48.20;;;;;;5057709;28;20657;-42
2021/10/20 07:52:59;;;;;;;2.03;1.80;;;19.00;48.20;;;;;;5049423;28;20718;-43
2021/10/20 07:55:32;;;;;;;2.70;1.90;;;19.00;48.20;;;;;;5050286;28;20290;-42
2021/10/20 07:58:02;;;;;;;2.97;1.67;;;19.00;48.20;;;;;;5052103;28;20203;-43
2021/10/20 08:00:33;;;;;;;3.20;1.80;;;19.00;48.30;;;;;;5065284;28;20211;-46
2021/10/20 08:03:03;;;;;;;2.28;1.73;;;19.00;48.30;;;;;;5066616;28;20309;-44
2021/10/20 08:05:34;;;;;;;2.42;1.67;;;18.90;48.20;;;;;;5049337;28;20282;-45
2021/10/20 08:08:07;;;;;;;1.58;1.40;;;18.90;48.20;;;;;;5048535;28;20626;-40
2021/10/20 08:10:41;;;;;;;3.30;2.00;;;18.90;48.20;;;;;;5058845;28;20211;-43
2021/10/20 08:13:11;;;;;;;2.63;1.70;;;18.90;48.30;;;;;;5063564;28;20689;-43
2021/10/20 08:15:42;;;;;;;1.70;1.50;;;18.80;48.30;;;;;;5061984;28;20240;-40
2021/10/20 08:18:13;;;;;;;3.45;1.60;;;18.90;48.30;;;;;;5050026;28;20195;-42
2021/10/20 08:20:43;;;;;;;3.30;1.88;;;18.80;48.30;;;;;;5048912;28;20259;-44
2021/10/20 08:23:13;;;;;;;2.67;1.80;;;18.80;48.30;;;;;;5064728;28;20222;-45
2021/10/20 08:25:46;;;;;;;3.17;1.90;;;18.80;48.30;;;;;;5050834;28;20234;-43
2021/10/20 08:28:16;;;;;;;2.95;2.10;;;18.80;48.30;;;;;;5055114;28;20254;-46
2021/10/20 08:30:47;;;;;;;3.78;2.20;;;18.70;48.20;;;;;;5048560;28;20307;-43
2021/10/20 08:33:17;;;;;;;3.28;2.20;;;18.70;48.20;;;;;;5048800;28;20235;-44
2021/10/20 08:35:48;;;;;;;2.75;2.00;;;18.70;48.20;;;;;;5052569;28;20739;-43
2021/10/20 08:38:18;;;;;;;3.00;1.90;;;18.70;48.20;;;;;;5040710;28;20227;-41
2021/10/20 08:40:51;;;;;;;4.57;2.13;;;18.70;48.20;;;;;;5062999;28;20247;-47
2021/10/20 08:43:22;;;;;;;2.88;2.15;;;18.70;48.20;;;;;;5048967;28;20234;-45
2021/10/20 08:45:53;;;;;;;4.20;2.30;;;18.60;48.20;;;;;;5049060;28;20237;-41
2021/10/20 08:48:24;;;;;;;2.60;1.92;;;18.60;48.30;;;;;;5050697;28;20200;-43
2021/10/20 08:50:58;;;;;;;2.65;1.80;;;18.60;48.30;;;;;;5052577;28;20230;-42
2021/10/20 08:53:29;;;;;;;3.65;2.15;;;18.60;48.30;;;;;;5049408;28;20199;-42
2021/10/20 08:56:02;;;;;;;2.88;1.92;;;18.50;48.30;;;;;;5048873;28;20227;-44
2021/10/20 08:58:32;;;;;;;3.50;1.92;;;18.50;48.30;;;;;;5053972;28;20245;-45
2021/10/20 09:01:03;;;;;;;3.72;2.22;;;18.50;48.30;;;;;;5061754;28;20535;-41
2021/10/20 09:03:33;;;;;;;4.18;1.90;;;18.50;48.40;;;;;;5060654;28;20258;-41
2021/10/20 09:06:04;;;;;;;2.72;2.08;;;18.50;48.30;;;;;;5057419;28;20227;-43
2021/10/20 09:08:43;;;;;;;2.53;1.77;;;18.50;48.40;;;;;;5048004;28;20261;-46
2021/10/20 09:11:33;;;;;;;2.60;1.92;;;18.40;48.30;;;;;;5048317;28;20311;-40
2021/10/20 09:14:05;;;;;;;2.10;1.67;;;18.40;48.30;;;;;;5049757;28;20305;-41
2021/10/20 09:16:37;;;;;;;2.55;1.88;;;18.40;48.30;;;;;;5063987;28;20256;-42
2021/10/20 09:19:15;;;;;;;3.28;2.10;;;18.40;48.40;;;;;;5061956;28;20286;-42
2021/10/20 09:21:54;;;;;;;1.95;1.67;;;18.30;48.40;;;;;;5060576;28;20848;-41
2021/10/20 09:24:26;;;;;;;3.25;2.08;;;18.30;48.40;;;;;;5051963;28;20223;-43
2021/10/20 09:27:00;;;;;;;3.58;2.17;;;18.30;48.40;;;;;;5055057;28;20230;-40
2021/10/20 09:29:31;;;;;;;3.30;1.95;;;18.30;48.40;;;;;;5048700;28;20203;-42
2021/10/20 09:32:02;;;;;;;3.78;2.10;;;18.30;48.40;;;;;;5050553;28;20261;-41
2021/10/20 09:34:38;;;;;;;2.45;1.80;;;18.20;48.40;;;;;;5063726;28;20242;-40
2021/10/20 09:37:09;;;;;;;2.92;2.03;;;18.20;48.40;;;;;;5047366;28;20282;-43
2021/10/20 09:39:41;;;;;;;3.85;2.50;;;18.20;48.40;;;;;;5062439;28;20234;-42
2021/10/20 09:42:16;;;;;;;2.30;1.90;;;18.20;48.40;;;;;;5064237;28;20270;-47
2021/10/20 09:44:51;;;;;;;2.33;2.05;;;18.20;48.50;;;;;;5047423;28;20312;-40
2021/10/20 09:47:22;;;;;;;2.97;2.05;;;18.10;48.40;;;;;;5047941;28;20230;-41
2021/10/20 09:49:56;;;;;;;2.58;1.95;;;18.10;48.50;;;;;;5048980;28;20234;-42
2021/10/20 09:52:27;;;;;;;2.90;2.47;;;18.10;48.50;;;;;;5048969;28;20600;-43
2021/10/20 09:55:00;;;;;;;3.67;2.40;;;18.10;48.50;;;;;;5052524;28;20226;-40
2021/10/20 09:57:35;;;;;;;3.50;2.17;;;18.10;48.60;;;;;;5061979;28;20227;-40
2021/10/20 10:00:06;;;;;;;4.30;2.38;;;18.00;48.50;;;;;;5062646;28;20297;-41
2021/10/20 10:02:36;;;;;;;4.78;2.40;;;18.00;48.50;;;;;;5046939;28;20468;-43
2021/10/20 10:05:07;;;;;;;2.85;2.47;;;18.00;48.60;;;;;;5064900;28;20314;-40
2021/10/20 10:07:38;;;;;;;3.60;2.60;;;18.00;48.60;;;;;;5062768;28;20732;-41
2021/10/20 10:10:09;;;;;;;3.60;2.58;;;18.00;48.60;;;;;;5060247;28;20239;-42
2021/10/20 10:12:44;;;;;;;4.10;2.40;;;17.90;48.60;;;;;;5064135;28;20230;-45
2021/10/20 10:15:17;;;;;;;2.95;2.55;;;17.90;48.60;;;;;;5056481;28;20234;-43
2021/10/20 10:17:49;;;;;;;3.47;2.70;;;17.90;48.60;;;;;;5055524;28;20285;-41
2021/10/20 10:20:20;;;;;;;3.67;2.70;;;17.90;48.60;;;;;;5064803;28;20794;-46
2021/10/20 10:22:53;;;;;;;2.67;2.30;;;17.90;48.60;;;;;;5038056;28;20236;-40
2021/10/20 10:25:36;;;;;;;3.45;2.50;;;17.90;48.60;;;;;;5050825;28;20780;-40
2021/10/20 10:28:24;;;;;;;3.28;2.40;;;17.80;48.60;;;;;;5040028;28;20195;-40
2021/10/20 10:30:56;;;;;;;3.33;2.47;;;17.80;48.60;;;;;;5035374;28;20212;-41
2021/10/20 10:33:28;;;;;;;3.28;2.60;;;17.80;48.60;;;;;;5053650;28;20242;-45
2021/10/20 10:36:16;;;;;;;4.88;2.70;;;17.80;48.60;;;;;;5061749;28;20227;-41
2021/10/20 10:38:47;;;;;;;3.55;2.50;;;17.70;48.60;;;;;;5066257;28;20206;-44
2021/10/20 10:41:23;;;;;;;3.75;2.65;;;17.70;48.60;;;;;;5052838;28;20247;-42
2021/10/20 10:44:14;;;;;;;3.65;2.42;;;17.70;48.60;;;;;;5060150;28;20261;-40
2021/10/20 10:46:53;;;;;;;2.75;2.25;;;17.70;48.70;;;;;;5055524;28;20262;-41
2021/10/20 10:49:28;;;;;;;3.67;2.45;;;17.70;48.60;;;;;;5059336;28;20241;-42
2021/10/20 10:52:18;;;;;;;3.42;2.60;;;17.60;48.70;;;;;;5064733;28;20249;-44
2021/10/20 10:55:00;;;;;;;2.80;2.10;;;17.60;48.70;;;;;;5057086;28;20277;-40
2021/10/20 10:57:45;;;;;;;3.28;2.55;;;17.60;48.60;;;;;;5050574;28;20199;-40
2021/10/20 11:00:46;;;;;;;3.53;2.40;;;17.60;48.70;;;;;;5050075;28;20258;-43
2021/10/20 11:03:26;;;;;;;2.58;2.25;;;17.60;48.70;;;;;;5056419;28;20198;-41
2021/10/20 11:05:59;;;;;;;4.18;2.17;;;17.50;48.60;;;;;;5058724;28;20196;-41
2021/10/20 11:08:31;;;;;;;3.75;2.33;;;17.50;48.60;;;;;;5050529;28;20202;-40
2021/10/20 11:11:03;;;;;;;3.45;2.22;;;17.50;48.70;;;;;;5049924;28;20280;-40
2021/10/20 11:13:33;;;;;;;5.03;2.67;;;17.50;48.70;;;;;;5065466;28;20302;-44
2021/10/20 11:16:09;;;;;;;3.80;2.40;;;17.40;48.70;;;;;;5068772;28;20256;-42
2021/10/20 11:18:39;;;;;;;3.10;2.30;;;17.40;48.70;;;;;;5051190;28;20562;-41
2021/10/20 11:21:13;;;;;;;3.22;2.42;;;17.40;48.70;;;;;;5050353;28;20250;-42
2021/10/20 11:23:47;;;;;;;4.07;2.47;;;17.40;48.80;;;;;;5049432;28;20864;-41
2021/10/20 11:26:17;;;;;;;2.63;2.22;;;17.40;48.80;;;;;;5046953;28;20230;-41
2021/10/20 11:28:48;;;;;;;2.85;2.28;;;17.40;48.80;;;;;;5051040;28;20296;-41
2021/10/20 11:31:20;;;;;;;3.70;2.53;;;17.30;48.70;;;;;;5059992;28;20250;-41
2021/10/20 11:33:51;;;;;;;2.92;2.13;;;17.30;48.80;;;;;;5052487;28;20239;-40
2021/10/20 11:36:22;;;;;;;3.45;2.60;;;17.30;48.80;;;;;;5064500;28;20306;-44
2021/10/20 11:38:52;;;;;;;3.05;2.22;;;17.30;48.80;;;;;;5032124;28;20228;-43
2021/10/20 11:41:23;;;;;;;2.55;2.25;;;17.20;48.70;;;;;;5051210;28;21170;-42
2021/10/20 11:43:57;;;;;;;2.72;2.22;;;17.30;48.80;;;;;;5049853;28;20247;-42
2021/10/20 11:46:35;;;;;;;2.97;2.17;;;17.20;48.70;;;;;;5060357;28;20230;-47
2021/10/20 11:49:06;;;;;;;2.65;2.20;;;17.20;48.70;;;;;;5052674;28;20239;-40
2021/10/20 11:51:36;;;;;;;2.58;2.03;;;17.20;48.70;;;;;;5050477;28;20251;-41
2021/10/20 11:54:10;;;;;;;2.53;1.90;;;17.20;48.80;;;;;;5049532;28;20227;-41
2021/10/20 11:56:41;;;;;;;3.47;2.25;;;17.20;48.80;;;;;;5052095;28;20281;-43
2021/10/20 11:59:24;;;;;;;2.78;2.10;;;17.20;48.80;;;;;;5064125;28;20238;-42
2021/10/20 12:01:56;;;;;;;2.40;1.95;;;17.10;48.70;;;;;;5064511;28;20254;-44
2021/10/20 12:04:27;;;;;;;2.45;2.22;;;17.10;48.70;;;;;;5036131;28;20798;-41
2021/10/20 12:07:01;;;;;;;3.22;2.40;;;17.10;48.80;;;;;;5059238;28;20223;-42
2021/10/20 12:09:32;;;;;;;2.95;2.08;;;17.10;48.80;;;;;;5043949;28;20271;-41
2021/10/20 12:12:05;;;;;;;3.83;2.30;;;17.10;48.80;;;;;;5061593;28;20305;-44
2021/10/20 12:14:38;;;;;;;3.63;2.50;;;17.00;48.80;;;;;;5052957;28;20214;-44
2021/10/20 12:17:11;;;;;;;3.78;2.33;;;17.00;48.80;;;;;;5056889;28;20233;-40
2021/10/20 12:19:44;;;;;;;2.90;2.20;;;17.00;48.80;;;;;;5062131;28;20294;-42
2021/10/20 12:22:16;;;;;;;2.45;2.17;;;17.00;48.80;;;;;;5062240;28;20234;-42
2021/10/20 12:24:48;;;;;;;3.00;2.05;;;17.00;48.90;;;;;;5061299;28;20219;-46
2021/10/20 12:27:20;;;;;;;2.90;2.35;;;16.90;48.80;;;;;;5046454;28;20196;-40
2021/10/20 12:29:52;;;;;;;3.58;2.40;;;16.90;48.80;;;;;;5062904;28;20247;-40
2021/10/20 12:32:27;;;;;;;2.58;2.00;;;16.90;48.80;;;;;;5039250;28;20279;-40
2021/10/20 12:35:00;;;;;;;3.67;2.40;;;16.90;48.80;;;;;;5058205;28;20233;-40
2021/10/20 12:37:34;;;;;;;2.75;2.05;;;16.90;48.80;;;;;;5051640;28;20230;-42
2021/10/20 12:40:16;;;;;;;2.85;2.13;;;16.90;48.80;;;;;;5049565;28;20265;-40
2021/10/20 12:42:49;;;;;;;2.55;2.03;;;16.80;48.80;;;;;;5047968;28;20227;-46
2021/10/20 12:45:20;;;;;;;2.63;2.08;;;16.80;48.70;;;;;;5053840;28;20690;-44
2021/10/20 12:47:54;;;;;;;3.00;2.40;;;16.80;48.80;;;;;;5058933;28;20230;-40
2021/10/20 12:50:26;;;;;;;3.03;2.15;;;16.80;48.80;;;;;;5049080;28;20254;-42
2021/10/20 12:52:57;;;;;;;2.78;1.90;;;16.80;48.80;;;;;;5048400;28;20227;-42
2021/10/20 12:55:29;;;;;;;2.42;2.00;;;16.70;48.80;;;;;;5047904;28;20772;-43
2021/10/20 12:58:01;;;;;;;3.60;2.30;;;16.70;48.80;;;;;;5048307;28;20282;-41
2021/10/20 13:00:32;;;;;;;3.05;2.25;;;16.70;48.80;;;;;;5049035;28;20219;-42
2021/10/20 13:03:05;;;;;;;2.95;2.17;;;16.70;48.90;;;;;;5059435;28;20242;-45
2021/10/20 13:05:35;;;;;;;2.83;2.40;;;16.70;48.90;;;;;;5051087;28;20636;-45
2021/10/20 13:08:06;;;;;;;3.03;2.30;;;16.60;48.80;;;;;;5049049;28;20227;-41
2021/10/20 13:10:36;;;;;;;2.83;2.20;;;16.60;48.80;;;;;;5048966;28;20215;-43
2021/10/20 13:13:07;;;;;;;2.78;2.22;;;16.60;48.80;;;;;;5049383;28;20246;-42